Current Weather

Central Park

Central Park, New York (KNYC)

Report from: Tuesday, February 27, 2024 3:51 AM EST
Current time: Tuesday, February 27, 2024 4:18 AM EST

Nearby weather – Weather history – Daily summaries
Weather forecast

Temperature5.6°C (42.1°F)
Wind chill4.6°C (40.2°F)
Dew point2.2°C (36.0°F)
Winds 3 kts (1.5 m/s, 3.5 mph) Northeast (50°)
Visibility10 mi. (16.1 km)
Clouds Sky clear
Altimeter30.05 in.Hg (1018 mB)
Relative humidity79 %
Density altitude-1,149 ft. (-350 m)
Sea-level pressure101.7 kPa (1017 mB, 30.03 in.Hg)
Remarks Fully automated report
System requires maintenance
Automated weather observing station with precipitation discriminator
Pressure falling more slowly
Flight conditions Visual Meteorological Conditions
Raw dataKNYC 270851Z AUTO 05003KT 10SM CLR 06/02 A3005 RMK AO2 SLP168 T00560022 56007 $
An error has occurred. This application may no longer respond until reloaded. Reload 🗙